Time;durP1;ratioP1;P1;durP2;ratioP2;P2;SDS_P1;SDS_P2;PMS_P1;PMS_P2;Temp;Humidity;BMP_temperature;BMP_pressure;BME280_temperature;BME280_humidity;BME280_pressure;Samples;Min_cycle;Max_cycle;Signal;HPM_P1;HPM_P2
2023/08/28 07:53:48;;;;;;;;;;;;;;;5.21;100.00;99207.22;5353925;23;19942;-79
2023/08/28 07:56:13;;;;;;;;;;;;;;;5.20;100.00;99210.75;4972015;28;19926;-81
2023/08/28 07:58:39;;;;;;;;;;;;;;;5.24;100.00;99207.97;4971885;28;19919;-82
2023/08/28 08:01:04;;;;;;;;;;;;;;;5.28;100.00;99200.84;4973456;28;20013;-82
2023/08/28 08:03:31;;;;;;;;;;;;;;;5.33;100.00;99203.34;4973061;28;19918;-83
2023/08/28 08:05:57;;;;;;;;;;;;;;;5.27;100.00;99205.25;4973286;28;19918;-80
2023/08/28 08:08:22;;;;;;;;;;;;;;;5.27;100.00;99204.41;4974669;28;19929;-80
2023/08/28 08:10:48;;;;;;;;;;;;;;;5.37;100.00;99202.34;4976728;28;20009;-81
2023/08/28 08:13:13;;;;;;;;;;;;;;;5.40;100.00;99202.25;4975828;28;19922;-80
2023/08/28 08:15:38;;;;;;;;;;;;;;;5.36;100.00;99209.38;4976882;28;19938;-79
2023/08/28 08:18:03;;;;;;;;;;;;;;;5.32;100.00;99213.00;4977050;28;19919;-82
2023/08/28 08:20:30;;;;;;;;;;;;;;;5.40;100.00;99202.25;4976801;28;19919;-82
2023/08/28 08:22:56;;;;;;;;;;;;;;;5.40;100.00;99197.84;4975407;28;19922;-79
2023/08/28 08:25:22;;;;;;;;;;;;;;;5.45;100.00;99200.34;4976822;28;19925;-80
2023/08/28 08:27:48;;;;;;;;;;;;;;;5.41;100.00;99204.84;4975416;28;19922;-80
2023/08/28 08:30:16;;;;;;;;;;;;;;;5.48;100.00;99204.66;4976780;28;19922;-80
2023/08/28 08:32:43;;;;;;;;;;;;;;;5.49;100.00;99201.97;4975397;28;19922;-79
2023/08/28 08:35:09;;;;;;;;;;;;;;;5.48;100.00;99209.91;4975250;28;19988;-82
2023/08/28 08:37:34;;;;;;;;;;;;;;;5.45;100.00;99205.59;4975258;28;19972;-81
2023/08/28 08:40:00;;;;;;;;;;;;;;;5.45;100.00;99203.81;4976554;28;20005;-82
2023/08/28 08:42:25;;;;;;;;;;;;;;;5.43;100.00;99203.03;4976449;28;20011;-80
2023/08/28 08:44:50;;;;;;;;;;;;;;;5.44;100.00;99204.75;4976352;28;19922;-82
2023/08/28 08:47:16;;;;;;;;;;;;;;;5.43;100.00;99202.16;4975028;28;20253;-82
2023/08/28 08:49:42;;;;;;;;;;;;;;;5.49;100.00;99207.25;4976349;28;19926;-80
2023/08/28 08:52:08;;;;;;;;;;;;;;;5.42;100.00;99196.03;4974554;28;19965;-79
2023/08/28 08:54:37;;;;;;;;;;;;;;;5.44;100.00;99202.13;4975141;28;19929;-79
2023/08/28 08:57:08;;;;;;;;;;;;;;;5.56;100.00;99200.00;4976236;28;19917;-79
2023/08/28 08:59:34;;;;;;;;;;;;;;;5.54;100.00;99194.81;4973952;28;19953;-79
2023/08/28 09:02:02;;;;;;;;;;;;;;;5.44;100.00;99193.34;4975983;28;20400;-81
2023/08/28 09:04:28;;;;;;;;;;;;;;;5.53;100.00;99197.47;4974818;28;19918;-80
2023/08/28 09:06:54;;;;;;;;;;;;;;;5.49;100.00;99206.34;4976009;28;19973;-81
2023/08/28 09:09:20;;;;;;;;;;;;;;;5.55;100.00;99198.28;4973505;28;19937;-82
2023/08/28 09:11:46;;;;;;;;;;;;;;;5.53;100.00;99214.09;4975865;28;20009;-81
2023/08/28 09:14:12;;;;;;;;;;;;;;;5.53;100.00;99219.34;4975894;28;20291;-80
2023/08/28 09:16:37;;;;;;;;;;;;;;;5.54;100.00;99209.72;4975616;28;20321;-83
2023/08/28 09:19:03;;;;;;;;;;;;;;;5.50;100.00;99216.81;4974099;28;19918;-82
2023/08/28 09:21:33;;;;;;;;;;;;;;;5.54;100.00;99215.84;4975706;28;20266;-82
2023/08/28 09:23:58;;;;;;;;;;;;;;;5.59;100.00;99213.91;4973920;28;19922;-80
2023/08/28 09:26:24;;;;;;;;;;;;;;;5.55;100.00;99222.81;4975829;28;20032;-81
2023/08/28 09:28:59;;;;;;;;;;;;;;;5.53;100.00;99224.63;4975543;28;19922;-81
2023/08/28 09:31:34;;;;;;;;;;;;;;;5.61;100.00;99222.59;4974149;28;20377;-81
2023/08/28 09:34:00;;;;;;;;;;;;;;;5.55;100.00;99214.94;4975181;28;19988;-79
2023/08/28 09:36:27;;;;;;;;;;;;;;;5.58;100.00;99206.94;4975725;28;20369;-82
2023/08/28 09:38:52;;;;;;;;;;;;;;;5.59;100.00;99211.28;4974373;28;19973;-81
2023/08/28 09:41:17;;;;;;;;;;;;;;;5.59;100.00;99213.91;4974313;28;19922;-82
2023/08/28 09:43:43;;;;;;;;;;;;;;;5.63;100.00;99226.06;4973970;28;19919;-83
2023/08/28 09:46:08;;;;;;;;;;;;;;;5.66;100.00;99213.72;4974140;28;20022;-80
2023/08/28 09:48:34;;;;;;;;;;;;;;;5.71;100.00;99219.69;4974001;28;19973;-82
2023/08/28 09:51:01;;;;;;;;;;;;;;;5.63;100.00;99226.06;4975371;28;20300;-82
2023/08/28 09:53:27;;;;;;;;;;;;;;;5.63;100.00;99223.44;4973806;28;19918;-83
2023/08/28 09:55:53;;;;;;;;;;;;;;;5.62;100.00;99226.09;4975092;28;20407;-82
2023/08/28 09:58:19;;;;;;;;;;;;;;;5.63;100.00;99215.56;4975066;28;19918;-83
2023/08/28 10:00:44;;;;;;;;;;;;;;;5.62;100.00;99219.06;4973702;28;19918;-81
2023/08/28 10:03:10;;;;;;;;;;;;;;;5.68;100.00;99219.78;4975224;28;19929;-81
2023/08/28 10:05:40;;;;;;;;;;;;;;;5.76;100.00;99209.88;4974861;28;19941;-81
2023/08/28 10:08:07;;;;;;;;;;;;;;;5.62;100.00;99207.72;4973530;28;19922;-79
2023/08/28 10:10:33;;;;;;;;;;;;;;;5.63;100.00;99199.78;4974879;28;19918;-81
2023/08/28 10:13:00;;;;;;;;;;;;;;;5.61;100.00;99204.19;4973439;28;19938;-83
2023/08/28 10:15:27;;;;;;;;;;;;;;;5.63;100.00;99197.16;4973628;28;19962;-83
2023/08/28 10:17:52;;;;;;;;;;;;;;;5.68;100.00;99204.88;4974717;28;20027;-81
2023/08/28 10:20:21;;;;;;;;;;;;;;;5.64;100.00;99198.00;4973621;28;20412;-80
2023/08/28 10:22:46;;;;;;;;;;;;;;;5.67;100.00;99199.69;4973162;28;19918;-81
2023/08/28 10:25:13;;;;;;;;;;;;;;;5.68;100.00;99201.38;4973390;28;19969;-81
2023/08/28 10:27:39;;;;;;;;;;;;;;;5.66;100.00;99197.94;4981258;28;19918;-79
2023/08/28 10:30:06;;;;;;;;;;;;;;;5.74;100.00;99195.94;4974218;28;20476;-79
2023/08/28 10:32:31;;;;;;;;;;;;;;;5.66;100.00;99193.53;4971995;28;20370;-81
2023/08/28 10:34:57;;;;;;;;;;;;;;;5.67;100.00;99194.44;4974280;28;19914;-79
2023/08/28 10:37:23;;;;;;;;;;;;;;;5.75;100.00;99195.88;4971846;28;20315;-83
2023/08/28 10:39:49;;;;;;;;;;;;;;;5.76;100.00;99188.84;4974467;28;19918;-81
2023/08/28 10:42:17;;;;;;;;;;;;;;;5.67;100.00;99190.03;4974241;28;19922;-80
2023/08/28 10:44:43;;;;;;;;;;;;;;;5.71;100.00;99196.91;4973412;28;19958;-79
2023/08/28 10:47:13;;;;;;;;;;;;;;;5.74;100.00;99190.66;4981124;28;19918;-79
2023/08/28 10:49:38;;;;;;;;;;;;;;;5.85;100.00;99188.53;4972842;28;19966;-80
2023/08/28 10:52:05;;;;;;;;;;;;;;;5.86;100.00;99190.28;4972495;28;20352;-80
2023/08/28 10:54:42;;;;;;;;;;;;;;;5.71;100.00;99188.13;4971808;28;19922;-80
2023/08/28 10:57:20;;;;;;;;;;;;;;;5.77;100.00;99193.19;4973957;28;19933;-79
2023/08/28 10:59:45;;;;;;;;;;;;;;;5.73;100.00;99197.72;4973999;28;19922;-82
2023/08/28 11:02:11;;;;;;;;;;;;;;;5.74;100.00;99196.78;4973862;28;20420;-83
2023/08/28 11:04:37;;;;;;;;;;;;;;;5.90;100.00;99197.13;4973851;28;19964;-82
2023/08/28 11:07:03;;;;;;;;;;;;;;;5.69;100.00;99192.59;4973628;28;19922;-83
2023/08/28 11:09:30;;;;;;;;;;;;;;;5.69;100.00;99187.34;4972997;28;19929;-84
2023/08/28 11:12:01;;;;;;;;;;;;;;;5.72;100.00;99193.34;4973246;28;19962;-82
2023/08/28 11:14:26;;;;;;;;;;;;;;;5.74;100.00;99193.31;4973825;28;20024;-82
2023/08/28 11:17:04;;;;;;;;;;;;;;;5.75;100.00;99189.78;4972457;28;19964;-82
2023/08/28 11:19:30;;;;;;;;;;;;;;;5.71;100.00;99191.66;4973573;28;19918;-83
2023/08/28 11:21:58;;;;;;;;;;;;;;;5.79;100.00;99196.63;4972398;28;19928;-83
2023/08/28 11:24:23;;;;;;;;;;;;;;;5.75;100.00;99192.41;4970899;28;19918;-83
2023/08/28 11:26:49;;;;;;;;;;;;;;;5.74;100.00;99188.91;4973554;28;20013;-84
2023/08/28 11:29:33;;;;;;;;;;;;;;;5.82;100.00;99193.91;4972407;28;19925;-83
2023/08/28 11:31:58;;;;;;;;;;;;;;;5.77;100.00;99194.06;4973414;28;19922;-80
2023/08/28 11:34:23;;;;;;;;;;;;;;;5.77;100.00;99186.16;4973399;28;20288;-83
2023/08/28 11:36:49;;;;;;;;;;;;;;;5.70;100.00;99189.06;4973627;28;19922;-82
2023/08/28 11:39:23;;;;;;;;;;;;;;;5.71;100.00;99180.25;4972124;28;20008;-79
2023/08/28 11:41:49;;;;;;;;;;;;;;;5.75;100.00;99182.75;4972592;28;19953;-80
2023/08/28 11:44:15;;;;;;;;;;;;;;;5.80;100.00;99179.97;4972254;28;19924;-80
2023/08/28 11:46:40;;;;;;;;;;;;;;;5.72;100.00;99182.00;4973288;28;19918;-81
2023/08/28 11:49:10;;;;;;;;;;;;;;;5.71;100.00;99181.13;4973389;28;19918;-82
2023/08/28 11:51:36;;;;;;;;;;;;;;;5.77;100.00;99186.16;4971199;28;19925;-81
2023/08/28 11:54:03;;;;;;;;;;;;;;;5.79;100.00;99179.13;4970537;28;19941;-79
2023/08/28 11:56:32;;;;;;;;;;;;;;;5.76;100.00;99184.47;4973335;28;20395;-80
2023/08/28 11:58:57;;;;;;;;;;;;;;;5.76;100.00;99186.22;4973182;28;19937;-80
2023/08/28 12:01:24;;;;;;;;;;;;;;;5.75;100.00;99177.47;4971886;28;19918;-81
2023/08/28 12:03:50;;;;;;;;;;;;;;;5.77;100.00;99180.91;4971967;28;19929;-81
2023/08/28 12:06:18;;;;;;;;;;;;;;;5.78;100.00;99181.78;4971754;28;19918;-80
2023/08/28 12:08:44;;;;;;;;;;;;;;;5.77;100.00;99182.69;4971806;28;19997;-80
2023/08/28 12:11:10;;;;;;;;;;;;;;;5.80;100.00;99174.69;4973144;28;20072;-82
2023/08/28 12:13:36;;;;;;;;;;;;;;;5.81;100.00;99187.78;4973026;28;20016;-82
2023/08/28 12:16:15;;;;;;;;;;;;;;;5.81;100.00;99177.28;4972950;28;20035;-81
2023/08/28 12:18:53;;;;;;;;;;;;;;;5.79;100.00;99175.59;4972599;28;19929;-79
2023/08/28 12:21:19;;;;;;;;;;;;;;;5.86;100.00;99184.16;4972365;28;19998;-81
2023/08/28 12:23:49;;;;;;;;;;;;;;;5.79;100.00;99180.84;4971876;28;20035;-81
2023/08/28 12:26:15;;;;;;;;;;;;;;;5.83;100.00;99177.22;4971745;28;19918;-81
2023/08/28 12:28:41;;;;;;;;;;;;;;;5.85;100.00;99171.94;4973099;28;20276;-79
2023/08/28 12:31:06;;;;;;;;;;;;;;;5.83;100.00;99161.47;4971447;28;20038;-80
2023/08/28 12:33:37;;;;;;;;;;;;;;;5.81;100.00;99165.91;4971726;28;20352;-83
2023/08/28 12:36:04;;;;;;;;;;;;;;;5.75;100.00;99151.19;4971249;28;19929;-85
2023/08/28 12:38:29;;;;;;;;;;;;;;;5.85;100.00;99156.16;4970973;28;20351;-82
2023/08/28 12:40:54;;;;;;;;;;;;;;;5.82;100.00;99151.84;4971474;28;20022;-82
2023/08/28 12:43:21;;;;;;;;;;;;;;;5.83;100.00;99153.56;4972964;28;19922;-81
2023/08/28 12:45:46;;;;;;;;;;;;;;;5.83;100.00;99154.41;4972745;28;19918;-82
2023/08/28 12:48:11;;;;;;;;;;;;;;;5.89;100.00;99150.75;4972816;28;20289;-81
2023/08/28 12:50:36;;;;;;;;;;;;;;;5.82;100.00;99144.84;4972827;28;19919;-83
2023/08/28 12:53:04;;;;;;;;;;;;;;;5.87;100.00;99149.94;4971612;28;20362;-82
2023/08/28 12:55:29;;;;;;;;;;;;;;;5.94;100.00;99146.19;4975176;28;19961;-80
2023/08/28 12:57:55;;;;;;;;;;;;;;;5.90;100.00;99141.91;4974926;28;19976;-81
2023/08/28 13:00:20;;;;;;;;;;;;;;;5.89;100.00;99139.34;4976155;28;19972;-84
2023/08/28 13:02:46;;;;;;;;;;;;;;;5.92;100.00;99132.22;4976272;28;20295;-82
2023/08/28 13:05:11;;;;;;;;;;;;;;;5.89;100.00;99142.84;4976153;28;19928;-83
2023/08/28 13:07:37;;;;;;;;;;;;;;;5.91;100.00;99140.16;4974899;28;19918;-82
2023/08/28 13:10:04;;;;;;;;;;;;;;;5.94;100.00;99143.53;4975955;28;20013;-83
2023/08/28 13:12:29;;;;;;;;;;;;;;;5.93;100.00;99139.19;4975920;28;20150;-81
2023/08/28 13:14:55;;;;;;;;;;;;;;;5.93;100.00;99141.81;4974725;28;19930;-81
2023/08/28 13:17:21;;;;;;;;;;;;;;;6.00;100.00;99135.47;4975761;28;19918;-81
2023/08/28 13:19:46;;;;;;;;;;;;;;;5.94;100.00;99140.91;4975979;28;19922;-81
2023/08/28 13:22:11;;;;;;;;;;;;;;;5.96;100.00;99135.59;4974401;28;19922;-80
2023/08/28 13:24:36;;;;;;;;;;;;;;;5.97;100.00;99127.69;4974371;28;19926;-80
2023/08/28 13:27:03;;;;;;;;;;;;;;;5.92;100.00;99131.34;4975558;28;19925;-80
2023/08/28 13:29:29;;;;;;;;;;;;;;;5.92;100.00;99124.34;4974532;28;19996;-81
2023/08/28 13:31:54;;;;;;;;;;;;;;;5.94;100.00;99126.91;4975812;28;20591;-82
2023/08/28 13:34:19;;;;;;;;;;;;;;;5.99;100.00;99125.88;4975556;28;19929;-82
2023/08/28 13:36:44;;;;;;;;;;;;;;;5.98;100.00;99128.53;4974306;28;19941;-81
2023/08/28 13:39:10;;;;;;;;;;;;;;;5.91;100.00;99119.97;4972903;28;19928;-81
2023/08/28 13:41:37;;;;;;;;;;;;;;;5.97;100.00;99122.44;4975389;28;19922;-80
2023/08/28 13:44:04;;;;;;;;;;;;;;;5.97;100.00;99118.97;4975200;28;19922;-81
2023/08/28 13:46:29;;;;;;;;;;;;;;;5.96;100.00;99115.44;4974119;28;19968;-80
2023/08/28 13:48:55;;;;;;;;;;;;;;;6.09;100.00;99117.66;4974399;28;19926;-81
2023/08/28 13:51:21;;;;;;;;;;;;;;;6.06;100.00;99123.88;4973958;28;19922;-80
2023/08/28 13:53:46;;;;;;;;;;;;;;;6.03;100.00;99112.59;4973907;28;20891;-81
2023/08/28 13:56:11;;;;;;;;;;;;;;;5.97;100.00;99111.06;4974957;28;20013;-81
2023/08/28 13:58:37;;;;;;;;;;;;;;;5.98;100.00;99113.66;4974027;28;20336;-81
2023/08/28 14:01:03;;;;;;;;;;;;;;;5.99;100.00;99117.97;4974897;28;19955;-81
2023/08/28 14:03:28;;;;;;;;;;;;;;;5.99;100.00;99122.38;4975081;28;20373;-81
2023/08/28 14:06:03;;;;;;;;;;;;;;;5.97;100.00;99114.53;4974541;28;19973;-83
2023/08/28 14:08:29;;;;;;;;;;;;;;;5.94;100.00;99119.88;4973096;28;20359;-83
2023/08/28 14:10:54;;;;;;;;;;;;;;;5.98;100.00;99124.16;4974693;28;19941;-78
2023/08/28 14:13:20;;;;;;;;;;;;;;;6.10;100.00;99129.91;4974671;28;20374;-80
2023/08/28 14:15:49;;;;;;;;;;;;;;;5.98;100.00;99126.78;4973626;28;19918;-83
2023/08/28 14:18:19;;;;;;;;;;;;;;;5.96;100.00;99128.59;4974694;28;19919;-87
2023/08/28 14:20:49;;;;;;;;;;;;;;;6.00;100.00;99124.97;4973562;28;19918;-80
2023/08/28 14:23:14;;;;;;;;;;;;;;;5.98;100.00;99132.06;4971823;28;19937;-81
2023/08/28 14:25:40;;;;;;;;;;;;;;;5.98;100.00;99134.69;4972847;28;19926;-81
2023/08/28 14:28:05;;;;;;;;;;;;;;;6.05;100.00;99137.06;4973632;28;20378;-83
2023/08/28 14:30:30;;;;;;;;;;;;;;;6.04;100.00;99141.47;4974614;28;19929;-83
2023/08/28 14:32:55;;;;;;;;;;;;;;;6.06;100.00;99141.44;4974579;28;19918;-79
2023/08/28 14:35:21;;;;;;;;;;;;;;;6.07;100.00;99137.91;4974265;28;20286;-82
2023/08/28 14:37:46;;;;;;;;;;;;;;;5.97;100.00;99146.09;4972701;28;19922;-84
2023/08/28 14:40:11;;;;;;;;;;;;;;;6.04;100.00;99145.91;4972971;28;19918;-84
2023/08/28 14:42:37;;;;;;;;;;;;;;;5.98;100.00;99157.47;4974315;28;20373;-81
2023/08/28 14:45:02;;;;;;;;;;;;;;;5.98;100.00;99153.09;4974156;28;20436;-83
2023/08/28 14:47:27;;;;;;;;;;;;;;;6.00;100.00;99147.78;4972634;28;19925;-85
2023/08/28 14:49:52;;;;;;;;;;;;;;;5.99;100.00;99154.78;4974139;28;20349;-82
2023/08/28 14:52:18;;;;;;;;;;;;;;;5.99;100.00;99151.31;4972856;28;19929;-81
2023/08/28 14:54:43;;;;;;;;;;;;;;;6.00;100.00;99156.53;4973680;28;20459;-84
2023/08/28 14:57:08;;;;;;;;;;;;;;;6.01;100.00;99160.00;4973746;28;20361;-80
2023/08/28 14:59:35;;;;;;;;;;;;;;;6.00;100.00;99161.78;4973952;28;19937;-81
2023/08/28 15:02:01;;;;;;;;;;;;;;;5.97;100.00;99161.88;4973211;28;20393;-84
2023/08/28 15:04:26;;;;;;;;;;;;;;;6.05;100.00;99152.84;4973565;28;20352;-83
2023/08/28 15:06:51;;;;;;;;;;;;;;;6.02;100.00;99151.22;4973805;28;19922;-84
2023/08/28 15:09:17;;;;;;;;;;;;;;;6.04;100.00;99153.78;4972542;28;19965;-82
2023/08/28 15:11:42;;;;;;;;;;;;;;;6.05;100.00;99155.47;4974123;28;19949;-82
2023/08/28 15:14:07;;;;;;;;;;;;;;;6.00;100.00;99156.53;4973233;28;20332;-82
2023/08/28 15:16:32;;;;;;;;;;;;;;;6.04;100.00;99161.69;4973178;28;19972;-81
2023/08/28 15:18:58;;;;;;;;;;;;;;;6.06;100.00;99165.09;4973561;28;19961;-80
2023/08/28 15:21:23;;;;;;;;;;;;;;;6.01;100.00;99165.25;4973382;28;20349;-82
2023/08/28 15:23:48;;;;;;;;;;;;;;;6.07;100.00;99158.94;4971964;28;19968;-84
2023/08/28 15:26:15;;;;;;;;;;;;;;;6.03;100.00;99159.94;4972258;28;19922;-80
2023/08/28 15:28:41;;;;;;;;;;;;;;;6.08;100.00;99155.38;4973493;28;19921;-81
2023/08/28 15:31:06;;;;;;;;;;;;;;;6.03;100.00;99155.56;4973315;28;20040;-81
2023/08/28 15:33:32;;;;;;;;;;;;;;;6.02;100.00;99145.94;4973259;28;19918;-80
2023/08/28 15:35:57;;;;;;;;;;;;;;;6.06;100.00;99146.69;4973410;28;19922;-82
2023/08/28 15:38:22;;;;;;;;;;;;;;;6.06;100.00;99142.28;4971076;28;19918;-83
2023/08/28 15:40:47;;;;;;;;;;;;;;;6.10;100.00;99143.06;4973097;28;19929;-87
2023/08/28 15:43:12;;;;;;;;;;;;;;;6.11;100.00;99143.00;4973252;28;20484;-82
2023/08/28 15:45:48;;;;;;;;;;;;;;;6.11;100.00;99152.66;4973402;28;19922;-82
2023/08/28 15:48:13;;;;;;;;;;;;;;;6.11;100.00;99150.91;4973141;28;20034;-81
2023/08/28 15:50:39;;;;;;;;;;;;;;;6.08;100.00;99148.38;4973038;28;20009;-85
2023/08/28 15:53:04;;;;;;;;;;;;;;;6.07;100.00;99145.78;4971892;28;19918;-81
2023/08/28 15:55:29;;;;;;;;;;;;;;;6.06;100.00;99146.69;4973108;28;20358;-82
2023/08/28 15:57:54;;;;;;;;;;;;;;;6.11;100.00;99140.38;4973126;28;20391;-81
2023/08/28 16:00:20;;;;;;;;;;;;;;;6.16;100.00;99142.84;4972834;28;19918;-80
2023/08/28 16:02:46;;;;;;;;;;;;;;;6.12;100.00;99143.84;4973259;28;20551;-81
2023/08/28 16:05:11;;;;;;;;;;;;;;;6.14;100.00;99140.28;4972923;28;19918;-81
2023/08/28 16:07:36;;;;;;;;;;;;;;;6.14;100.00;99137.63;4971621;28;19953;-84
2023/08/28 16:10:02;;;;;;;;;;;;;;;6.17;100.00;99128.75;4972819;28;20364;-85
2023/08/28 16:12:27;;;;;;;;;;;;;;;6.21;100.00;99132.13;4973017;28;19918;-81
2023/08/28 16:14:52;;;;;;;;;;;;;;;6.21;100.00;99132.13;4973068;28;19918;-84
2023/08/28 16:17:18;;;;;;;;;;;;;;;6.16;100.00;99124.44;4971430;28;19937;-81
2023/08/28 16:19:43;;;;;;;;;;;;;;;6.23;100.00;99133.81;4972832;28;20016;-81
2023/08/28 16:22:09;;;;;;;;;;;;;;;6.22;100.00;99129.44;4971996;28;20333;-80
2023/08/28 16:24:34;;;;;;;;;;;;;;;6.24;100.00;99138.16;4972666;28;19918;-80
2023/08/28 16:26:59;;;;;;;;;;;;;;;6.28;100.00;99134.50;4972697;28;20235;-82
2023/08/28 16:29:26;;;;;;;;;;;;;;;6.22;100.00;99141.75;4972664;28;20013;-81
2023/08/28 16:31:52;;;;;;;;;;;;;;;6.23;100.00;99130.34;4976692;28;19921;-81
2023/08/28 16:34:17;;;;;;;;;;;;;;;6.24;100.00;99132.03;4976479;28;19969;-80
2023/08/28 16:36:42;;;;;;;;;;;;;;;6.19;100.00;99134.84;4974905;28;19918;-84
2023/08/28 16:39:07;;;;;;;;;;;;;;;6.21;100.00;99135.66;4975446;28;19918;-81
2023/08/28 16:41:33;;;;;;;;;;;;;;;6.24;100.00;99132.91;4973153;28;20013;-82
2023/08/28 16:43:58;;;;;;;;;;;;;;;6.22;100.00;99142.59;4971712;28;19922;-83
2023/08/28 16:46:24;;;;;;;;;;;;;;;6.25;100.00;99139.03;4974174;28;20037;-82
2023/08/28 16:48:49;;;;;;;;;;;;;;;6.24;100.00;99143.44;4975561;28;19922;-81
2023/08/28 16:51:14;;;;;;;;;;;;;;;6.20;100.00;99133.91;4975868;28;20406;-81
2023/08/28 16:53:39;;;;;;;;;;;;;;;6.23;100.00;99141.69;4974516;28;19926;-80
2023/08/28 16:56:05;;;;;;;;;;;;;;;6.24;100.00;99138.16;4971125;28;20369;-80
2023/08/28 16:58:30;;;;;;;;;;;;;;;6.27;100.00;99140.69;4969464;28;19925;-81
2023/08/28 17:00:56;;;;;;;;;;;;;;;6.24;100.00;99148.69;4973231;28;20382;-80
2023/08/28 17:03:23;;;;;;;;;;;;;;;6.20;100.00;99141.81;4974979;28;19926;-81
2023/08/28 17:05:53;;;;;;;;;;;;;;;6.19;100.00;99145.38;4975891;28;19918;-80
2023/08/28 17:08:18;;;;;;;;;;;;;;;6.22;100.00;99147.88;4974652;28;19922;-80
2023/08/28 17:10:43;;;;;;;;;;;;;;;6.18;100.00;99149.75;4973645;28;20324;-83
2023/08/28 17:13:08;;;;;;;;;;;;;;;6.27;100.00;99155.59;4975735;28;19933;-81
2023/08/28 17:15:34;;;;;;;;;;;;;;;6.22;100.00;99153.13;4974490;28;19933;-82
2023/08/28 17:17:59;;;;;;;;;;;;;;;6.22;100.00;99160.16;4976125;28;20427;-81
2023/08/28 17:20:24;;;;;;;;;;;;;;;6.25;100.00;99160.06;4975555;28;19937;-81
2023/08/28 17:22:49;;;;;;;;;;;;;;;6.29;100.00;99164.31;4972836;28;19922;-80
2023/08/28 17:25:15;;;;;;;;;;;;;;;6.26;100.00;99161.78;4975677;28;20527;-86
2023/08/28 17:27:40;;;;;;;;;;;;;;;6.28;100.00;99166.06;4975668;28;19957;-82
2023/08/28 17:30:06;;;;;;;;;;;;;;;6.27;100.00;99168.75;4974223;28;19922;-83
2023/08/28 17:32:36;;;;;;;;;;;;;;;6.31;100.00;99165.97;4974561;28;19926;-80
2023/08/28 17:35:01;;;;;;;;;;;;;;;6.30;100.00;99174.78;4974729;28;19982;-80
2023/08/28 17:37:26;;;;;;;;;;;;;;;6.28;100.00;99166.06;4974118;28;20013;-80
2023/08/28 17:39:52;;;;;;;;;;;;;;;6.27;100.00;99167.00;4974791;28;20073;-82
2023/08/28 17:42:18;;;;;;;;;;;;;;;6.27;100.00;99174.03;4975233;28;19922;-81
2023/08/28 17:44:43;;;;;;;;;;;;;;;6.31;100.00;99171.22;4975288;28;19933;-82
2023/08/28 17:47:10;;;;;;;;;;;;;;;6.29;100.00;99173.06;4975160;28;19918;-81
2023/08/28 17:49:36;;;;;;;;;;;;;;;6.31;100.00;99176.50;4974709;28;19922;-80
2023/08/28 17:52:01;;;;;;;;;;;;;;;6.30;100.00;99180.06;4975047;28;20274;-80
2023/08/28 17:54:26;;;;;;;;;;;;;;;6.28;100.00;99175.75;4973576;28;19926;-83
2023/08/28 17:56:52;;;;;;;;;;;;;;;6.34;100.00;99180.81;4973533;28;19933;-80
2023/08/28 17:59:17;;;;;;;;;;;;;;;6.28;100.00;99176.59;4973435;28;19922;-81
2023/08/28 18:01:43;;;;;;;;;;;;;;;6.25;100.00;99175.84;4975044;28;19965;-80
2023/08/28 18:04:09;;;;;;;;;;;;;;;6.28;100.00;99171.34;4974968;28;19922;-80
2023/08/28 18:06:34;;;;;;;;;;;;;;;6.28;100.00;99179.22;4974492;28;19918;-80
2023/08/28 18:09:00;;;;;;;;;;;;;;;6.30;100.00;99176.53;4973307;28;19969;-80
2023/08/28 18:11:25;;;;;;;;;;;;;;;6.30;100.00;99182.69;4974512;28;19929;-80
2023/08/28 18:13:50;;;;;;;;;;;;;;;6.30;100.00;99177.44;4974801;28;20354;-81
2023/08/28 18:16:19;;;;;;;;;;;;;;;6.32;100.00;99178.22;4974377;28;19976;-83
2023/08/28 18:18:44;;;;;;;;;;;;;;;6.34;100.00;99192.19;4972439;28;20029;-80
2023/08/28 18:21:10;;;;;;;;;;;;;;;6.30;100.00;99187.94;4974422;28;20115;-80
2023/08/28 18:23:35;;;;;;;;;;;;;;;6.27;100.00;99193.31;4973098;28;19926;-81
2023/08/28 18:26:03;;;;;;;;;;;;;;;6.32;100.00;99198.41;4974231;28;19922;-80
2023/08/28 18:28:28;;;;;;;;;;;;;;;6.34;100.00;99189.53;4974397;28;19922;-80
2023/08/28 18:30:53;;;;;;;;;;;;;;;6.34;100.00;99189.53;4974399;28;19964;-80
2023/08/28 18:33:19;;;;;;;;;;;;;;;6.34;100.00;99196.59;4974278;28;20267;-80
2023/08/28 18:35:47;;;;;;;;;;;;;;;6.34;100.00;99196.59;4973913;28;19918;-80
2023/08/28 18:38:13;;;;;;;;;;;;;;;6.31;100.00;99191.44;4972958;28;19918;-80
2023/08/28 18:40:38;;;;;;;;;;;;;;;6.35;100.00;99193.91;4974389;28;20384;-80
2023/08/28 18:43:03;;;;;;;;;;;;;;;6.32;100.00;99194.00;4974055;28;20375;-80
2023/08/28 18:45:29;;;;;;;;;;;;;;;6.31;100.00;99200.16;4974034;28;19922;-80
2023/08/28 18:47:54;;;;;;;;;;;;;;;6.31;100.00;99207.22;4974143;28;20025;-79
2023/08/28 18:50:22;;;;;;;;;;;;;;;6.33;100.00;99195.75;4973226;28;20326;-80
2023/08/28 18:52:47;;;;;;;;;;;;;;;6.35;100.00;99198.28;4971016;28;19981;-80
2023/08/28 18:55:13;;;;;;;;;;;;;;;6.35;100.00;99193.91;4973737;28;19961;-80
2023/08/28 18:57:38;;;;;;;;;;;;;;;6.30;100.00;99195.84;4973993;28;20292;-80
2023/08/28 19:00:05;;;;;;;;;;;;;;;6.32;100.00;99199.28;4973799;28;19914;-80
2023/08/28 19:02:30;;;;;;;;;;;;;;;6.32;100.00;99209.78;4972368;28;19929;-83
2023/08/28 19:04:56;;;;;;;;;;;;;;;6.38;100.00;99202.59;4973640;28;20021;-86
2023/08/28 19:07:21;;;;;;;;;;;;;;;6.35;100.00;99219.34;4972891;28;20349;-79
2023/08/28 19:09:46;;;;;;;;;;;;;;;6.35;100.00;99217.59;4973615;28;19918;-80
2023/08/28 19:12:11;;;;;;;;;;;;;;;6.33;100.00;99224.69;4973654;28;19918;-81
2023/08/28 19:14:37;;;;;;;;;;;;;;;6.34;100.00;99229.00;4973634;28;19918;-80
2023/08/28 19:17:02;;;;;;;;;;;;;;;6.36;100.00;99227.19;4973784;28;19918;-80
2023/08/28 19:19:27;;;;;;;;;;;;;;;6.40;100.00;99233.22;4973397;28;19918;-80
2023/08/28 19:21:52;;;;;;;;;;;;;;;6.36;100.00;99237.72;4973294;28;19965;-80
2023/08/28 19:24:18;;;;;;;;;;;;;;;6.33;100.00;99237.84;4972333;28;19918;-80
2023/08/28 19:26:43;;;;;;;;;;;;;;;6.34;100.00;99236.91;4973534;28;20825;-81
2023/08/28 19:29:08;;;;;;;;;;;;;;;6.41;100.00;99242.81;4973367;28;19918;-79
2023/08/28 19:31:34;;;;;;;;;;;;;;;6.40;100.00;99233.22;4973204;28;19969;-81
2023/08/28 19:33:59;;;;;;;;;;;;;;;6.34;100.00;99236.06;4973392;28;20384;-80
2023/08/28 19:36:24;;;;;;;;;;;;;;;6.35;100.00;99240.38;4973507;28;19918;-80
2023/08/28 19:38:50;;;;;;;;;;;;;;;6.34;100.00;99243.94;4971700;28;19922;-80
2023/08/28 19:41:15;;;;;;;;;;;;;;;6.40;100.00;99245.50;4973307;28;19926;-80
2023/08/28 19:43:40;;;;;;;;;;;;;;;6.38;100.00;99249.97;4973285;28;19925;-80
2023/08/28 19:46:06;;;;;;;;;;;;;;;6.38;100.00;99245.53;4973123;28;19930;-79
2023/08/28 19:48:31;;;;;;;;;;;;;;;6.39;100.00;99251.69;4972980;28;19925;-86
2023/08/28 19:50:57;;;;;;;;;;;;;;;6.36;100.00;99248.22;4972017;28;20341;-81
2023/08/28 19:53:22;;;;;;;;;;;;;;;6.33;100.00;99252.75;4972122;28;20479;-81
2023/08/28 19:55:47;;;;;;;;;;;;;;;6.32;100.00;99253.69;4972927;28;19929;-79
2023/08/28 19:58:13;;;;;;;;;;;;;;;6.39;100.00;99256.97;4973054;28;19929;-80
2023/08/28 20:00:38;;;;;;;;;;;;;;;6.40;100.00;99253.41;4973055;28;19918;-81
2023/08/28 20:03:04;;;;;;;;;;;;;;;6.45;100.00;99262.00;4973801;28;19926;-79
2023/08/28 20:05:29;;;;;;;;;;;;;;;6.40;100.00;99258.66;4976770;28;19919;-80
2023/08/28 20:07:54;;;;;;;;;;;;;;;6.45;100.00;99256.75;4974400;28;20301;-80
2023/08/28 20:10:20;;;;;;;;;;;;;;;6.40;100.00;99259.53;4977061;28;19910;-79
2023/08/28 20:12:47;;;;;;;;;;;;;;;6.39;100.00;99264.84;4975656;28;19932;-80
2023/08/28 20:15:13;;;;;;;;;;;;;;;6.39;100.00;99254.31;4976834;28;20013;-80
2023/08/28 20:17:38;;;;;;;;;;;;;;;6.42;100.00;99248.97;4976707;28;19941;-80
2023/08/28 20:20:11;;;;;;;;;;;;;;;6.45;100.00;99252.34;4975606;28;19919;-80
2023/08/28 20:22:36;;;;;;;;;;;;;;;6.40;100.00;99248.13;4974820;28;20038;-79
2023/08/28 20:25:02;;;;;;;;;;;;;;;6.43;100.00;99242.75;4976541;28;20373;-79
2023/08/28 20:27:27;;;;;;;;;;;;;;;6.44;100.00;99244.50;4976647;28;20358;-80
2023/08/28 20:29:52;;;;;;;;;;;;;;;6.43;100.00;99237.50;4976673;28;19964;-82
2023/08/28 20:32:17;;;;;;;;;;;;;;;6.39;100.00;99241.16;4976471;28;19996;-80
2023/08/28 20:34:43;;;;;;;;;;;;;;;6.43;100.00;99233.13;4976376;28;19958;-80